Time;durP1;ratioP1;P1;durP2;ratioP2;P2;SDS_P1;SDS_P2;PMS_P1;PMS_P2;Temp;Humidity;BMP_temperature;BMP_pressure;BME280_temperature;BME280_humidity;BME280_pressure;Samples;Min_cycle;Max_cycle;Signal;HPM_P1;HPM_P2
2022/04/30 00:00:58;;;;;;;14.95;10.57;;;5.30;99.90;;;;;;5000585;28;20476;-84
2022/04/30 00:03:28;;;;;;;16.80;10.52;;;4.30;99.90;;;;;;5000536;28;20057;-77
2022/04/30 00:06:02;;;;;;;17.85;10.88;;;4.00;99.90;;;;;;5030418;28;20048;-77
2022/04/30 00:08:28;;;;;;;17.98;10.43;;;4.00;99.90;;;;;;5013581;28;20037;-77
2022/04/30 00:10:54;;;;;;;17.77;10.40;;;4.00;99.90;;;;;;5033166;28;20063;-77
2022/04/30 00:13:20;;;;;;;16.08;10.60;;;4.00;99.90;;;;;;5015228;28;20049;-77
2022/04/30 00:15:46;;;;;;;14.82;9.38;;;4.00;99.90;;;;;;4983463;28;20045;-77
2022/04/30 00:18:11;;;;;;;15.00;9.20;;;4.00;99.90;;;;;;5014022;28;20049;-77
2022/04/30 00:20:38;;;;;;;12.85;8.88;;;3.80;99.90;;;;;;4998579;28;20048;-84
2022/04/30 00:23:05;;;;;;;14.73;9.88;;;3.80;99.90;;;;;;5000438;28;20107;-84
2022/04/30 00:25:31;;;;;;;14.68;9.70;;;3.80;99.90;;;;;;5015657;28;20049;-84
2022/04/30 00:27:57;;;;;;;12.63;9.57;;;3.70;99.90;;;;;;5015811;28;20037;-84
2022/04/30 00:30:23;;;;;;;13.10;9.07;;;3.70;99.90;;;;;;5018217;28;20076;-84
2022/04/30 00:32:49;;;;;;;15.23;9.05;;;3.50;99.90;;;;;;5015513;28;20089;-84
2022/04/30 00:35:15;;;;;;;14.02;9.82;;;3.50;99.90;;;;;;5014450;28;20045;-78
2022/04/30 00:37:41;;;;;;;15.88;9.48;;;3.40;99.90;;;;;;5032075;28;20041;-77
2022/04/30 00:40:08;;;;;;;13.60;9.10;;;5.20;99.90;;;;;;5030246;28;20037;-77
2022/04/30 00:42:34;;;;;;;14.77;9.15;;;2.60;99.90;;;;;;5031387;28;20037;-77
2022/04/30 00:44:59;;;;;;;12.05;7.88;;;4.20;99.90;;;;;;5014073;28;20460;-77
2022/04/30 00:47:26;;;;;;;14.95;9.10;;;3.30;99.90;;;;;;5014189;28;20537;-77
2022/04/30 00:49:53;;;;;;;12.50;8.25;;;3.40;99.90;;;;;;4998656;28;20049;-77
2022/04/30 00:52:25;;;;;;;13.95;7.95;;;3.00;99.90;;;;;;4996600;28;20060;-78
2022/04/30 00:54:56;;;;;;;16.13;9.20;;;3.30;99.90;;;;;;5016962;28;20132;-78
2022/04/30 00:57:25;;;;;;;12.88;8.43;;;3.30;99.90;;;;;;5001087;28;20045;-78
2022/04/30 00:59:59;;;;;;;15.68;8.60;;;3.20;99.90;;;;;;5017297;28;21809;-78
2022/04/30 01:02:29;;;;;;;14.35;8.52;;;3.20;99.90;;;;;;5015725;28;20076;-78
2022/04/30 01:04:57;;;;;;;13.35;8.50;;;3.30;99.90;;;;;;5013838;28;20055;-78
2022/04/30 01:07:23;;;;;;;13.10;8.23;;;3.30;99.90;;;;;;5014986;28;20063;-78
2022/04/30 01:09:52;;;;;;;13.05;8.35;;;3.30;99.90;;;;;;5015310;28;20578;-84
2022/04/30 01:12:18;;;;;;;13.07;8.15;;;3.30;99.90;;;;;;4998834;28;20077;-84
2022/04/30 01:14:46;;;;;;;16.15;8.80;;;3.40;99.90;;;;;;5031515;28;20041;-84
2022/04/30 01:17:11;;;;;;;14.57;8.75;;;3.60;99.90;;;;;;4998269;28;20484;-84
2022/04/30 01:19:43;;;;;;;12.50;8.48;;;3.40;99.90;;;;;;4998399;28;20052;-84
2022/04/30 01:22:08;;;;;;;15.70;7.93;;;3.50;99.90;;;;;;5018309;28;20045;-83
2022/04/30 01:24:35;;;;;;;12.18;7.75;;;4.00;99.90;;;;;;5014558;28;20099;-84
2022/04/30 01:27:04;;;;;;;12.95;8.60;;;3.50;99.90;;;;;;5016582;28;20387;-84
2022/04/30 01:29:30;;;;;;;11.20;8.00;;;3.50;99.90;;;;;;5015717;28;20051;-84
2022/04/30 01:37:27;;;;;;;13.93;8.23;;;3.60;99.90;;;;;;5018750;28;20053;-84
2022/04/30 01:40:07;;;;;;;15.25;8.32;;;3.70;99.90;;;;;;5017680;28;21166;-84
2022/04/30 01:42:38;;;;;;;13.90;9.00;;;3.70;99.90;;;;;;5021545;28;21231;-78
2022/04/30 01:45:05;;;;;;;16.40;9.35;;;3.70;99.90;;;;;;5034150;28;20026;-77
2022/04/30 01:47:35;;;;;;;18.83;9.20;;;3.80;99.90;;;;;;5015309;28;20112;-77
2022/04/30 01:50:01;;;;;;;15.80;8.98;;;3.80;99.90;;;;;;5015869;28;20581;-77
2022/04/30 01:52:28;;;;;;;15.25;9.90;;;3.80;99.90;;;;;;5016037;28;20498;-77
2022/04/30 01:54:53;;;;;;;17.83;9.50;;;3.90;99.90;;;;;;5017657;28;20045;-77
2022/04/30 01:57:26;;;;;;;15.77;8.95;;;3.80;99.90;;;;;;5016736;28;20107;-77
2022/04/30 01:59:56;;;;;;;19.50;10.13;;;3.80;99.90;;;;;;5037101;28;20053;-78
2022/04/30 02:02:26;;;;;;;13.07;8.90;;;3.80;99.90;;;;;;5035030;28;20132;-78
2022/04/30 02:04:54;;;;;;;21.90;9.85;;;4.00;99.90;;;;;;5000112;28;20483;-78
2022/04/30 02:07:20;;;;;;;14.15;9.38;;;3.80;99.90;;;;;;5017848;28;20048;-78
2022/04/30 02:09:47;;;;;;;18.02;10.23;;;3.80;99.90;;;;;;4999229;28;20099;-78
2022/04/30 02:12:13;;;;;;;17.67;10.82;;;3.80;99.90;;;;;;5036975;28;20480;-78
2022/04/30 02:14:42;;;;;;;18.70;10.20;;;3.80;99.90;;;;;;5001538;28;20124;-78
2022/04/30 02:17:10;;;;;;;17.25;11.02;;;4.00;99.90;;;;;;5017356;28;20049;-84
2022/04/30 02:22:21;;;;;;;19.35;9.95;;;4.10;99.90;;;;;;5021315;28;20103;-84
2022/04/30 02:24:48;;;;;;;18.02;10.38;;;4.20;99.90;;;;;;5017435;28;20041;-84
2022/04/30 02:27:15;;;;;;;19.45;10.20;;;4.20;99.90;;;;;;5018337;28;20116;-84
2022/04/30 02:29:40;;;;;;;19.02;10.18;;;5.10;99.90;;;;;;5016965;28;20151;-84
2022/04/30 02:32:08;;;;;;;16.73;10.23;;;4.50;99.90;;;;;;5016237;28;20057;-77
2022/04/30 02:34:35;;;;;;;16.33;10.48;;;;;;;;;;5001191;28;20138;-78
2022/04/30 02:37:03;;;;;;;16.88;10.15;;;4.70;99.90;;;;;;4999624;28;20048;-78
2022/04/30 02:39:31;;;;;;;14.15;9.90;;;4.80;99.90;;;;;;5015697;28;20061;-78
2022/04/30 02:41:57;;;;;;;16.83;9.75;;;5.40;99.90;;;;;;5017693;28;20442;-77
2022/04/30 02:44:26;;;;;;;12.65;9.05;;;4.80;99.90;;;;;;5015780;28;20042;-78
2022/04/30 02:46:55;;;;;;;16.98;9.50;;;4.70;99.90;;;;;;5017266;28;20529;-78
2022/04/30 02:49:21;;;;;;;13.07;8.35;;;4.60;99.90;;;;;;5031879;28;20053;-78
2022/04/30 02:51:47;;;;;;;13.20;8.80;;;4.60;99.90;;;;;;4999564;28;20091;-77
2022/04/30 02:54:13;;;;;;;13.75;8.93;;;4.50;99.90;;;;;;5018197;28;20033;-78
2022/04/30 02:56:39;;;;;;;15.50;9.73;;;4.40;99.90;;;;;;5015820;28;20041;-77
2022/04/30 03:01:49;;;;;;;12.57;8.93;;;4.40;99.90;;;;;;5005120;28;20124;-78
2022/04/30 03:04:14;;;;;;;12.35;9.18;;;4.30;99.90;;;;;;5016727;28;20381;-77
2022/04/30 03:06:40;;;;;;;13.45;9.10;;;4.30;99.90;;;;;;4984593;28;20048;-78
2022/04/30 03:09:06;;;;;;;13.88;9.35;;;4.30;99.90;;;;;;5015825;28;20495;-77
2022/04/30 03:11:32;;;;;;;12.82;8.88;;;4.60;99.90;;;;;;5014611;28;20547;-78
2022/04/30 03:13:58;;;;;;;14.98;9.43;;;4.20;99.90;;;;;;5033443;28;20138;-77
2022/04/30 03:21:53;;;;;;;13.18;8.82;;;4.30;99.90;;;;;;5014566;28;20483;-86
2022/04/30 03:24:19;;;;;;;17.65;9.82;;;4.40;99.90;;;;;;5019671;28;20279;-86
2022/04/30 03:26:46;;;;;;;14.50;9.10;;;5.30;99.90;;;;;;5005998;28;20040;-86
2022/04/30 03:29:12;;;;;;;13.93;9.20;;;4.50;99.90;;;;;;5019071;28;20049;-86
2022/04/30 03:31:41;;;;;;;12.57;9.10;;;4.50;99.90;;;;;;5018290;28;20041;-86
2022/04/30 03:34:12;;;;;;;16.15;9.25;;;4.60;99.90;;;;;;5019568;28;20033;-86
2022/04/30 03:36:38;;;;;;;14.80;8.85;;;5.40;99.90;;;;;;5018035;28;20041;-86
2022/04/30 03:39:05;;;;;;;17.10;8.95;;;4.30;99.90;;;;;;5017916;28;20042;-84
2022/04/30 03:41:31;;;;;;;12.15;8.75;;;4.90;99.90;;;;;;5014496;28;20037;-84
2022/04/30 03:43:57;;;;;;;15.68;8.98;;;4.70;99.90;;;;;;5016174;28;20060;-84
2022/04/30 03:46:22;;;;;;;15.20;9.30;;;4.60;99.90;;;;;;5034510;28;20048;-84
2022/04/30 03:48:53;;;;;;;18.45;9.75;;;4.70;99.90;;;;;;4983809;28;20053;-84
2022/04/30 03:51:21;;;;;;;12.55;8.80;;;4.70;99.90;;;;;;4986227;28;20048;-84
2022/04/30 03:53:47;;;;;;;12.05;9.13;;;4.90;99.90;;;;;;5015319;28;20079;-84
2022/04/30 03:56:13;;;;;;;15.35;9.65;;;6.00;99.90;;;;;;5015751;28;20119;-84
2022/04/30 03:58:39;;;;;;;13.15;8.93;;;5.60;99.90;;;;;;5016086;28;20495;-84
2022/04/30 04:01:05;;;;;;;13.80;8.90;;;4.90;99.90;;;;;;5015337;28;20056;-84
2022/04/30 04:03:31;;;;;;;12.80;8.32;;;4.90;99.90;;;;;;4999629;28;21204;-84
2022/04/30 04:05:58;;;;;;;10.63;8.38;;;4.90;99.90;;;;;;5016836;28;20033;-84
2022/04/30 04:08:25;;;;;;;15.35;8.85;;;5.80;99.90;;;;;;5017345;28;20068;-84
2022/04/30 04:10:50;;;;;;;13.68;8.85;;;6.00;99.90;;;;;;5015652;28;20088;-84
2022/04/30 04:18:44;;;;;;;15.32;8.88;;;5.40;99.90;;;;;;5002947;28;20048;-86
2022/04/30 04:21:11;;;;;;;15.30;9.13;;;5.20;99.90;;;;;;4998830;28;20491;-86
2022/04/30 04:26:21;;;;;;;13.15;8.77;;;5.30;99.90;;;;;;5033570;28;20041;-86
2022/04/30 04:28:47;;;;;;;13.15;9.35;;;5.40;99.90;;;;;;4998533;28;20041;-84
2022/04/30 04:31:13;;;;;;;12.88;9.32;;;5.40;99.90;;;;;;5016865;28;20483;-84
2022/04/30 04:33:39;;;;;;;16.45;9.45;;;5.50;99.90;;;;;;4997781;28;20195;-84
2022/04/30 04:36:05;;;;;;;13.63;9.48;;;5.70;99.90;;;;;;4976224;28;20491;-84
2022/04/30 04:38:31;;;;;;;15.68;9.40;;;5.70;99.90;;;;;;5017656;28;20053;-84
2022/04/30 04:40:57;;;;;;;13.35;9.80;;;5.70;99.90;;;;;;5015489;28;20038;-84
2022/04/30 04:43:22;;;;;;;15.98;9.15;;;5.80;99.90;;;;;;4997883;28;20399;-84
2022/04/30 04:45:48;;;;;;;15.90;9.15;;;5.80;99.90;;;;;;5019845;28;20079;-86
2022/04/30 04:48:14;;;;;;;13.05;9.07;;;5.90;99.90;;;;;;5014532;28;20045;-86
2022/04/30 04:50:41;;;;;;;13.25;9.18;;;5.90;99.90;;;;;;5017632;28;20508;-87
2022/04/30 04:53:07;;;;;;;12.68;9.32;;;6.10;99.90;;;;;;5032009;28;20381;-86
2022/04/30 04:55:33;;;;;;;12.88;9.40;;;6.00;99.90;;;;;;5015575;28;20072;-86
2022/04/30 04:57:58;;;;;;;17.63;9.57;;;6.10;99.90;;;;;;5018727;28;20045;-87
2022/04/30 05:00:24;;;;;;;12.13;8.98;;;6.40;99.90;;;;;;5019152;28;20042;-87
2022/04/30 05:05:18;;;;;;;15.38;9.57;;;6.30;99.90;;;;;;5016922;28;20049;-87
2022/04/30 05:07:44;;;;;;;13.23;9.13;;;6.40;99.90;;;;;;5016535;28;20064;-86
2022/04/30 05:10:10;;;;;;;11.40;8.80;;;6.50;99.90;;;;;;5036557;28;20119;-86
2022/04/30 05:12:36;;;;;;;12.80;8.77;;;6.50;99.90;;;;;;5036184;28;20183;-87
2022/04/30 05:15:02;;;;;;;12.75;8.75;;;6.60;99.90;;;;;;5019366;28;21322;-86
2022/04/30 05:17:28;;;;;;;12.00;8.52;;;6.70;99.90;;;;;;5019852;28;20445;-86
2022/04/30 05:19:54;;;;;;;15.05;9.40;;;6.80;99.90;;;;;;4997820;28;20141;-79
2022/04/30 05:22:20;;;;;;;15.30;8.77;;;6.90;99.90;;;;;;5017855;28;20147;-79
2022/04/30 05:24:45;;;;;;;14.25;8.60;;;7.00;99.90;;;;;;5034586;28;20069;-79
2022/04/30 05:27:11;;;;;;;11.32;7.85;;;7.00;99.90;;;;;;5000685;28;20132;-79
2022/04/30 05:29:37;;;;;;;12.93;8.77;;;7.00;99.90;;;;;;5028515;28;20055;-79
2022/04/30 05:32:03;;;;;;;13.63;8.20;;;7.10;99.90;;;;;;5035394;28;20131;-79
2022/04/30 05:34:29;;;;;;;16.70;8.90;;;7.10;99.90;;;;;;5000022;28;20045;-79
2022/04/30 05:36:55;;;;;;;16.40;9.48;;;7.30;99.90;;;;;;5020966;28;20037;-86
2022/04/30 05:39:20;;;;;;;11.88;8.82;;;7.20;99.90;;;;;;5018243;28;20159;-86
2022/04/30 05:41:46;;;;;;;17.63;9.48;;;7.40;99.90;;;;;;5017425;28;20037;-86
2022/04/30 05:44:12;;;;;;;17.42;10.63;;;7.40;99.90;;;;;;5019635;28;20091;-86
2022/04/30 05:46:38;;;;;;;21.92;12.02;;;7.50;99.90;;;;;;5018910;28;20384;-87
2022/04/30 05:49:04;;;;;;;24.58;15.18;;;7.50;99.90;;;;;;5035063;28;20065;-86
2022/04/30 05:51:30;;;;;;;26.15;14.95;;;7.70;99.90;;;;;;5019155;28;20037;-86
2022/04/30 05:53:57;;;;;;;29.13;17.25;;;7.60;99.90;;;;;;5017470;28;20140;-78
2022/04/30 05:56:23;;;;;;;22.70;13.73;;;7.60;99.90;;;;;;5016733;28;20049;-78
2022/04/30 05:58:49;;;;;;;17.25;11.05;;;7.70;99.90;;;;;;5034086;28;21225;-78
2022/04/30 06:01:14;;;;;;;18.58;10.50;;;7.80;99.90;;;;;;5016799;28;20394;-78
2022/04/30 06:03:40;;;;;;;19.15;10.35;;;8.10;99.90;;;;;;4981533;28;20053;-78
2022/04/30 06:06:06;;;;;;;17.42;13.15;;;7.90;99.90;;;;;;5015974;28;20604;-78
2022/04/30 06:08:32;;;;;;;21.52;13.80;;;8.00;99.90;;;;;;5016700;28;20042;-86
2022/04/30 06:11:00;;;;;;;23.27;14.30;;;8.10;99.90;;;;;;5036135;28;20041;-86
2022/04/30 06:13:26;;;;;;;25.10;13.98;;;8.30;99.90;;;;;;5033682;28;20048;-86
2022/04/30 06:15:52;;;;;;;18.98;13.38;;;8.30;99.90;;;;;;5021082;28;20541;-86
2022/04/30 06:18:20;;;;;;;19.95;11.63;;;8.50;99.90;;;;;;5019623;28;20038;-86
2022/04/30 06:20:45;;;;;;;20.42;9.75;;;8.70;99.90;;;;;;5016818;28;20042;-87
2022/04/30 06:23:15;;;;;;;13.40;9.50;;;8.60;99.90;;;;;;5020134;28;20068;-87
2022/04/30 06:25:42;;;;;;;16.65;9.80;;;8.70;99.90;;;;;;5017523;28;20045;-78
2022/04/30 06:28:09;;;;;;;15.32;9.15;;;8.80;99.90;;;;;;4983070;28;20047;-78
2022/04/30 06:30:35;;;;;;;14.50;8.85;;;8.90;99.90;;;;;;5001025;28;20127;-78
2022/04/30 06:33:01;;;;;;;13.93;9.02;;;9.00;99.90;;;;;;5016131;28;20048;-78
2022/04/30 06:35:27;;;;;;;12.82;8.25;;;9.10;99.90;;;;;;5016108;28;20098;-78
2022/04/30 06:37:53;;;;;;;8.75;7.13;;;9.10;99.90;;;;;;5034669;28;20053;-78
2022/04/30 06:40:20;;;;;;;13.27;7.55;;;9.20;99.90;;;;;;4999781;28;20073;-78
2022/04/30 06:42:46;;;;;;;10.60;7.30;;;9.40;99.90;;;;;;5033855;28;20045;-79
2022/04/30 06:45:12;;;;;;;10.07;7.05;;;9.40;99.90;;;;;;5016013;28;20431;-79
2022/04/30 06:47:39;;;;;;;12.10;7.03;;;9.50;99.90;;;;;;5015635;28;20084;-79
2022/04/30 06:50:06;;;;;;;12.20;7.13;;;9.60;99.90;;;;;;5033559;28;21349;-79
2022/04/30 06:52:33;;;;;;;12.95;7.35;;;9.70;99.90;;;;;;5031534;28;20121;-79
2022/04/30 06:57:45;;;;;;;12.50;6.97;;;9.90;99.90;;;;;;5034197;28;20640;-79
2022/04/30 07:02:56;;;;;;;11.52;7.15;;;9.90;99.90;;;;;;5034801;28;20072;-84
2022/04/30 07:05:22;;;;;;;15.30;7.10;;;10.10;99.90;;;;;;5014266;28;20041;-84
2022/04/30 07:07:48;;;;;;;13.85;7.60;;;10.40;99.90;;;;;;5015713;28;20037;-84
2022/04/30 07:10:14;;;;;;;14.60;7.18;;;10.90;99.90;;;;;;5036988;28;20037;-84
2022/04/30 07:12:40;;;;;;;11.00;7.07;;;11.10;99.90;;;;;;5024284;28;20055;-84
2022/04/30 07:15:06;;;;;;;11.13;6.85;;;12.00;99.90;;;;;;5043212;28;20037;-78
2022/04/30 07:17:32;;;;;;;12.32;6.47;;;12.20;99.90;;;;;;4995694;28;20045;-78
2022/04/30 07:19:58;;;;;;;9.48;6.47;;;12.50;99.90;;;;;;5017731;28;20057;-78
2022/04/30 07:22:23;;;;;;;11.43;5.68;;;12.30;99.90;;;;;;5016653;28;21493;-78
2022/04/30 07:24:51;;;;;;;10.68;6.78;;;12.70;99.90;;;;;;5001629;28;20030;-78
2022/04/30 07:27:16;;;;;;;11.98;6.25;;;12.80;99.90;;;;;;5018465;28;20052;-78
2022/04/30 07:29:43;;;;;;;11.10;6.32;;;12.80;99.90;;;;;;5017392;28;21420;-79
2022/04/30 07:32:09;;;;;;;10.55;5.78;;;12.90;99.90;;;;;;4990881;28;20119;-78
2022/04/30 07:34:39;;;;;;;10.48;6.35;;;12.90;99.90;;;;;;5035605;28;20100;-78
2022/04/30 07:37:10;;;;;;;11.18;6.25;;;13.00;99.90;;;;;;5016437;28;20041;-78
2022/04/30 07:39:37;;;;;;;10.07;6.75;;;13.10;99.90;;;;;;5035344;28;20521;-78
2022/04/30 07:42:03;;;;;;;11.88;6.60;;;13.00;99.90;;;;;;5014844;28;20599;-78
2022/04/30 07:44:30;;;;;;;7.78;5.90;;;12.80;99.90;;;;;;4999251;28;20041;-78
2022/04/30 07:46:57;;;;;;;10.35;6.45;;;12.70;99.90;;;;;;5041640;28;20377;-79
2022/04/30 07:49:22;;;;;;;13.18;6.60;;;12.50;99.90;;;;;;5014286;28;20042;-79
2022/04/30 07:51:57;;;;;;;9.68;5.43;;;12.30;99.90;;;;;;5029039;28;20033;-80
2022/04/30 07:54:24;;;;;;;10.40;6.28;;;12.10;99.90;;;;;;5031906;28;20068;-79
2022/04/30 07:56:54;;;;;;;12.43;6.20;;;11.90;99.90;;;;;;5048045;28;20444;-79
2022/04/30 07:59:21;;;;;;;8.65;6.20;;;11.80;99.90;;;;;;5032005;28;20495;-79
2022/04/30 08:01:48;;;;;;;11.57;6.75;;;11.70;99.90;;;;;;5014516;28;20368;-80
2022/04/30 08:04:13;;;;;;;12.23;6.97;;;11.60;99.90;;;;;;5023235;28;20065;-79
2022/04/30 08:06:39;;;;;;;13.13;6.70;;;11.50;99.90;;;;;;5029741;28;20033;-86
2022/04/30 08:09:05;;;;;;;10.15;6.82;;;11.20;99.90;;;;;;5032199;28;20037;-86
2022/04/30 08:11:31;;;;;;;11.10;6.40;;;11.00;99.90;;;;;;5048699;28;20376;-86
2022/04/30 08:14:06;;;;;;;13.52;7.00;;;11.00;99.90;;;;;;5027445;28;20073;-86
2022/04/30 08:16:34;;;;;;;16.20;7.28;;;10.90;99.90;;;;;;5026574;28;20504;-86
2022/04/30 08:19:00;;;;;;;11.70;7.60;;;10.80;99.90;;;;;;5043685;28;20095;-86
2022/04/30 08:21:26;;;;;;;14.75;7.70;;;10.80;99.90;;;;;;5028081;28;20045;-86
2022/04/30 08:23:52;;;;;;;12.10;7.88;;;10.70;99.90;;;;;;5047901;28;20068;-86
2022/04/30 08:26:17;;;;;;;14.85;8.23;;;10.60;99.90;;;;;;5026186;28;20065;-86
2022/04/30 08:28:44;;;;;;;12.93;8.10;;;10.60;99.90;;;;;;5046983;28;20484;-86
2022/04/30 08:31:09;;;;;;;15.35;8.60;;;10.50;99.90;;;;;;5051554;28;20493;-86
2022/04/30 08:33:36;;;;;;;12.82;8.05;;;10.40;99.90;;;;;;5053839;28;20045;-86
2022/04/30 08:36:02;;;;;;;14.13;7.97;;;10.40;99.90;;;;;;5026290;28;20396;-86
2022/04/30 08:38:27;;;;;;;11.52;7.82;;;10.40;99.90;;;;;;5015380;28;20038;-78
2022/04/30 08:40:53;;;;;;;15.90;9.50;;;10.40;99.90;;;;;;5025882;28;20120;-79
2022/04/30 08:43:20;;;;;;;16.42;9.32;;;10.40;99.90;;;;;;5043992;28;20369;-79
2022/04/30 08:45:46;;;;;;;13.25;9.20;;;10.30;99.90;;;;;;5029672;28;20109;-79
2022/04/30 08:48:14;;;;;;;16.77;9.25;;;10.30;99.90;;;;;;5048857;28;20092;-79
2022/04/30 08:50:42;;;;;;;13.32;9.23;;;10.30;99.90;;;;;;5022200;28;20068;-79
2022/04/30 08:53:09;;;;;;;13.45;8.93;;;10.30;99.90;;;;;;5042348;28;20108;-79
2022/04/30 08:55:35;;;;;;;13.43;9.45;;;10.30;99.90;;;;;;5023913;28;20387;-78
2022/04/30 08:58:02;;;;;;;14.15;9.57;;;10.20;99.90;;;;;;5045501;28;20505;-79
2022/04/30 09:00:28;;;;;;;14.57;9.32;;;10.20;99.90;;;;;;5028062;28;20410;-78
2022/04/30 09:02:57;;;;;;;13.45;8.77;;;10.20;99.90;;;;;;5046793;28;20038;-79
2022/04/30 09:05:30;;;;;;;13.77;8.85;;;10.20;99.90;;;;;;5048116;28;20045;-78
2022/04/30 09:07:58;;;;;;;15.00;9.63;;;10.20;99.90;;;;;;5031833;28;20480;-78
2022/04/30 09:10:29;;;;;;;14.23;8.70;;;10.20;99.90;;;;;;5020096;28;20037;-78
2022/04/30 09:13:10;;;;;;;12.65;8.73;;;10.10;99.90;;;;;;5036169;28;20073;-86
2022/04/30 09:15:38;;;;;;;15.50;9.57;;;10.20;99.90;;;;;;5028064;28;20564;-86
2022/04/30 09:18:04;;;;;;;19.70;9.57;;;10.30;99.90;;;;;;5004984;28;20044;-86
2022/04/30 09:20:40;;;;;;;17.83;9.15;;;10.20;99.90;;;;;;5034799;28;20545;-86
2022/04/30 09:23:06;;;;;;;14.50;9.15;;;10.20;99.90;;;;;;5004881;28;20364;-86
2022/04/30 09:25:31;;;;;;;15.50;8.82;;;10.20;99.90;;;;;;5031404;28;20527;-86
2022/04/30 09:27:57;;;;;;;14.80;9.98;;;10.20;99.90;;;;;;5043704;28;20044;-86
2022/04/30 09:30:25;;;;;;;12.57;9.27;;;10.20;99.90;;;;;;5011650;28;20053;-86
2022/04/30 09:33:05;;;;;;;14.52;8.85;;;10.30;99.90;;;;;;5034661;28;20045;-86
2022/04/30 09:38:16;;;;;;;14.35;8.57;;;10.30;99.90;;;;;;5036543;28;20049;-86
2022/04/30 09:40:54;;;;;;;15.38;8.20;;;10.40;99.90;;;;;;5021746;28;20095;-85
2022/04/30 09:43:21;;;;;;;10.57;8.00;;;10.50;99.90;;;;;;5022522;28;20108;-86
2022/04/30 09:45:47;;;;;;;13.65;8.50;;;10.60;99.90;;;;;;5020796;28;20542;-87
2022/04/30 09:54:02;;;;;;;13.88;8.82;;;10.80;99.90;;;;;;5041012;28;20048;-86
2022/04/30 09:56:40;;;;;;;11.48;8.40;;;10.90;99.90;;;;;;5021886;28;20052;-86
2022/04/30 09:59:07;;;;;;;241.32;36.25;;;11.00;99.90;;;;;;5030150;28;20037;-86
2022/04/30 10:01:34;;;;;;;222.13;20.30;;;11.10;99.90;;;;;;5024288;28;20055;-86
2022/04/30 10:04:21;;;;;;;757.25;141.32;;;11.10;99.90;;;;;;5042675;28;20058;-79
2022/04/30 10:06:49;;;;;;;118.43;23.38;;;11.20;99.90;;;;;;5033423;28;20037;-79
2022/04/30 10:09:38;;;;;;;19.05;8.80;;;11.30;99.90;;;;;;5033710;28;20048;-79
2022/04/30 10:12:17;;;;;;;13.23;7.90;;;11.40;99.90;;;;;;5030234;28;20034;-79
2022/04/30 10:15:05;;;;;;;13.45;7.60;;;11.50;99.90;;;;;;5034434;28;20073;-79
2022/04/30 10:17:37;;;;;;;10.27;6.68;;;11.60;99.90;;;;;;5041446;28;20136;-79
2022/04/30 10:20:15;;;;;;;10.75;6.35;;;11.70;99.90;;;;;;5036735;28;20914;-86
2022/04/30 10:23:00;;;;;;;10.05;5.95;;;11.70;99.90;;;;;;5021422;28;20053;-86
2022/04/30 10:25:33;;;;;;;12.45;6.05;;;11.80;99.90;;;;;;5045585;28;20553;-87
2022/04/30 10:28:02;;;;;;;9.45;6.80;;;11.80;99.90;;;;;;5048334;28;20069;-87
2022/04/30 10:30:28;;;;;;;11.77;7.13;;;11.80;99.90;;;;;;5028778;28;20365;-87
2022/04/30 10:32:57;;;;;;;11.07;7.15;;;11.70;99.90;;;;;;5048390;28;20092;-87
2022/04/30 10:35:45;;;;;;;10.35;6.93;;;11.80;99.90;;;;;;5031535;28;20045;-86
2022/04/30 10:38:20;;;;;;;9.32;6.32;;;11.80;99.90;;;;;;5044957;28;20034;-85
2022/04/30 10:40:51;;;;;;;9.93;6.38;;;11.90;99.90;;;;;;5048987;28;20137;-85
2022/04/30 10:43:34;;;;;;;8.75;6.10;;;11.90;99.90;;;;;;5031163;28;20124;-85
2022/04/30 10:46:01;;;;;;;10.57;5.90;;;11.90;99.90;;;;;;5054161;28;20038;-85
2022/04/30 10:48:28;;;;;;;7.45;4.90;;;11.80;99.90;;;;;;5032772;28;20030;-86
2022/04/30 10:51:04;;;;;;;7.75;4.95;;;11.90;99.90;;;;;;5033647;28;20376;-86
2022/04/30 10:53:31;;;;;;;7.10;4.90;;;11.90;99.90;;;;;;5029987;28;20041;-85
2022/04/30 10:55:57;;;;;;;7.93;4.60;;;12.00;99.90;;;;;;5031029;28;20040;-85
2022/04/30 10:58:24;;;;;;;8.55;5.13;;;12.00;99.90;;;;;;5002313;28;20085;-86
2022/04/30 11:00:51;;;;;;;7.80;5.07;;;12.00;99.90;;;;;;5038293;28;20041;-85
2022/04/30 11:03:17;;;;;;;9.05;5.13;;;12.10;99.90;;;;;;5013057;28;20069;-85
2022/04/30 11:05:47;;;;;;;8.95;4.88;;;12.20;99.90;;;;;;5018552;28;20089;-85
2022/04/30 11:08:13;;;;;;;7.05;5.10;;;12.30;99.90;;;;;;4995880;28;20038;-85
2022/04/30 11:10:51;;;;;;;7.88;4.97;;;12.40;99.90;;;;;;5026649;28;20045;-87
2022/04/30 11:13:18;;;;;;;11.10;5.50;;;12.60;99.90;;;;;;5012512;28;20037;-87
2022/04/30 11:15:43;;;;;;;11.20;5.43;;;12.70;99.90;;;;;;5026177;28;20045;-86
2022/04/30 11:18:10;;;;;;;9.30;4.70;;;12.80;99.90;;;;;;5043935;28;20052;-90
2022/04/30 11:20:36;;;;;;;8.05;4.53;;;13.10;99.90;;;;;;5020353;28;20128;-87
2022/04/30 11:23:01;;;;;;;6.22;4.13;;;13.30;99.90;;;;;;4999174;28;20132;-86
2022/04/30 11:25:38;;;;;;;7.15;4.20;;;13.40;99.90;;;;;;5017705;28;20037;-85
2022/04/30 11:28:09;;;;;;;7.03;4.57;;;13.50;99.90;;;;;;5014224;28;20095;-85
2022/04/30 11:30:42;;;;;;;7.07;4.00;;;13.70;99.90;;;;;;5035061;28;20049;-85
2022/04/30 11:33:08;;;;;;;9.85;4.03;;;14.00;99.90;;;;;;5033449;28;20060;-85
2022/04/30 11:35:35;;;;;;;6.30;4.13;;;14.10;99.90;;;;;;5031359;28;20041;-86
2022/04/30 11:38:01;;;;;;;8.40;4.28;;;14.20;99.90;;;;;;5015112;28;20476;-85
2022/04/30 11:40:27;;;;;;;140.90;8.40;;;14.50;99.90;;;;;;5032617;28;20048;-85
2022/04/30 11:42:57;;;;;;;31.60;5.13;;;14.60;99.90;;;;;;5017413;28;20037;-87
2022/04/30 11:45:29;;;;;;;6.00;3.70;;;14.70;99.90;;;;;;5017026;28;20825;-86
2022/04/30 11:47:56;;;;;;;8.20;4.30;;;13.80;99.90;;;;;;5002313;28;20450;-86
2022/04/30 11:50:22;;;;;;;6.65;4.10;;;14.90;99.90;;;;;;5016961;28;20069;-87
2022/04/30 11:52:48;;;;;;;7.40;3.80;;;14.80;98.40;;;;;;5001361;28;20139;-87
2022/04/30 11:55:15;;;;;;;7.90;4.43;;;14.80;99.20;;;;;;5017099;28;20084;-88
2022/04/30 11:57:43;;;;;;;6.80;4.00;;;14.80;99.20;;;;;;5032766;28;20053;-86
2022/04/30 12:00:10;;;;;;;8.38;3.88;;;14.80;99.40;;;;;;5033877;28;20483;-85
2022/04/30 12:02:39;;;;;;;5.78;3.75;;;14.80;99.30;;;;;;5015811;28;20049;-86
2022/04/30 12:05:06;;;;;;;6.43;3.85;;;14.80;99.30;;;;;;5016479;28;20143;-86
2022/04/30 12:07:37;;;;;;;7.75;4.30;;;14.70;99.40;;;;;;5031611;28;20053;-85
2022/04/30 12:10:13;;;;;;;5.55;3.47;;;14.80;98.80;;;;;;5014302;28;20045;-86
2022/04/30 12:12:42;;;;;;;7.72;3.35;;;14.90;99.70;;;;;;5019268;28;20110;-85
2022/04/30 12:15:20;;;;;;;7.00;3.75;;;14.90;99.20;;;;;;5033940;28;20049;-80
2022/04/30 12:24:40;;;;;;;7.63;4.30;;;14.90;98.20;;;;;;5026151;28;20528;-80
2022/04/30 12:26:07;;;;;;;7.30;4.28;;;14.80;98.80;;;;;;5031721;28;20034;-80
2022/04/30 12:28:47;;;;;;;8.65;4.70;;;14.70;98.70;;;;;;5036190;28;20447;-80
2022/04/30 12:31:13;;;;;;;9.93;5.05;;;14.40;97.30;;;;;;5011787;28;20061;-80
2022/04/30 12:33:48;;;;;;;10.40;5.68;;;14.30;98.90;;;;;;5016536;28;20435;-80
2022/04/30 12:36:15;;;;;;;8.77;5.70;;;14.20;99.90;;;;;;5019968;28;20044;-80
2022/04/30 12:38:52;;;;;;;10.10;6.60;;;14.10;99.90;;;;;;5029800;28;20122;-80
2022/04/30 12:41:18;;;;;;;13.45;6.55;;;14.00;99.90;;;;;;5029979;28;20117;-79
2022/04/30 12:43:44;;;;;;;14.13;6.22;;;13.80;99.90;;;;;;5033503;28;20120;-80
2022/04/30 12:46:18;;;;;;;9.10;6.57;;;13.70;99.90;;;;;;5018243;28;20065;-80
2022/04/30 12:48:44;;;;;;;9.95;6.25;;;13.40;99.90;;;;;;5011457;28;20104;-87
2022/04/30 12:51:10;;;;;;;10.43;6.30;;;13.30;99.90;;;;;;5028210;28;20088;-87
2022/04/30 12:53:36;;;;;;;12.50;6.20;;;13.10;99.90;;;;;;5022217;28;20049;-88
2022/04/30 12:56:02;;;;;;;9.05;5.75;;;13.00;99.90;;;;;;5039102;28;20048;-88
2022/04/30 12:58:28;;;;;;;9.30;5.82;;;12.80;99.90;;;;;;5016632;28;20064;-88
2022/04/30 13:00:54;;;;;;;11.13;6.22;;;12.70;99.90;;;;;;5012525;28;20054;-88
2022/04/30 13:03:20;;;;;;;7.85;5.97;;;12.60;99.90;;;;;;5006345;28;20033;-88
2022/04/30 13:05:46;;;;;;;8.93;6.30;;;12.50;99.90;;;;;;5039660;28;20511;-79
2022/04/30 13:08:12;;;;;;;12.07;6.15;;;12.40;99.90;;;;;;5029495;28;20048;-79
2022/04/30 13:13:37;;;;;;;10.98;6.38;;;12.40;99.90;;;;;;5020843;28;20415;-79
2022/04/30 13:16:08;;;;;;;11.73;6.53;;;12.40;99.90;;;;;;5029612;28;20037;-79
2022/04/30 13:18:35;;;;;;;9.57;5.97;;;12.30;99.90;;;;;;5042169;28;20373;-79
2022/04/30 13:21:03;;;;;;;11.55;5.90;;;12.30;99.90;;;;;;5029892;28;20954;-79
2022/04/30 13:23:29;;;;;;;11.10;6.28;;;12.40;99.90;;;;;;5029588;28;20499;-80
2022/04/30 13:25:55;;;;;;;8.88;6.20;;;12.40;99.90;;;;;;5015728;28;20163;-80
2022/04/30 13:28:21;;;;;;;10.95;6.50;;;12.40;99.90;;;;;;5019414;28;20029;-80
2022/04/30 13:30:47;;;;;;;10.15;6.32;;;12.50;99.90;;;;;;4998316;28;20466;-80
2022/04/30 13:33:13;;;;;;;9.85;6.30;;;12.60;99.90;;;;;;5014864;28;20076;-80
2022/04/30 13:35:39;;;;;;;9.98;6.40;;;12.60;99.90;;;;;;5004876;28;20103;-80